createdAt,value
2022-08-08T00:00:56.240Z,93245.63
2022-08-08T00:02:33.467Z,93239.94
2022-08-08T00:05:43.372Z,93233.78
2022-08-08T00:08:27.265Z,93232.22
2022-08-08T00:11:13.239Z,93230.47
2022-08-08T00:14:16.656Z,93233.38
2022-08-08T00:16:58.332Z,93226.25
2022-08-08T00:19:52.241Z,93226.00
2022-08-08T00:22:28.906Z,93223.44
2022-08-08T00:25:13.871Z,93210.78
2022-08-08T00:27:43.582Z,93218.81
2022-08-08T00:30:15.836Z,93208.69
2022-08-08T00:33:11.662Z,93211.41
2022-08-08T00:35:50.487Z,93211.44
2022-08-08T00:38:31.908Z,93209.50
2022-08-08T00:42:08.334Z,93205.34
2022-08-08T00:45:03.191Z,93206.59
2022-08-08T00:48:29.900Z,93198.16
2022-08-08T00:51:25.302Z,93199.66
2022-08-08T00:54:41.756Z,93208.56
2022-08-08T00:57:34.016Z,93203.13
2022-08-08T01:00:17.992Z,93194.81
2022-08-08T01:04:01.965Z,93203.75
2022-08-08T01:07:06.788Z,93196.53
2022-08-08T01:09:41.682Z,93197.31
2022-08-08T01:12:31.804Z,93203.59
2022-08-08T01:15:37.157Z,93201.94
2022-08-08T01:18:53.208Z,93188.88
2022-08-08T01:21:35.036Z,93189.78
2022-08-08T01:24:56.711Z,93186.84
2022-08-08T01:27:59.373Z,93176.56
2022-08-08T01:32:02.672Z,93194.47
2022-08-08T01:34:20.302Z,93178.22
2022-08-08T01:37:05.819Z,93185.00
2022-08-08T01:40:14.597Z,93176.41
2022-08-08T01:42:52.689Z,93175.53
2022-08-08T01:45:42.526Z,93177.78
2022-08-08T01:48:30.528Z,93176.13
2022-08-08T01:52:41.029Z,93173.66
2022-08-08T01:55:17.477Z,93175.88
2022-08-08T01:58:10.868Z,93169.44
2022-08-08T02:00:40.407Z,93159.78
2022-08-08T02:03:55.037Z,93157.06
2022-08-08T02:07:13.659Z,93166.00
2022-08-08T02:10:03.306Z,93168.63
2022-08-08T02:13:02.272Z,93168.16
2022-08-08T02:15:38.554Z,93163.69
2022-08-08T02:18:32.137Z,93164.44
2022-08-08T02:21:43.506Z,93155.69
2022-08-08T02:24:33.656Z,93162.75
2022-08-08T02:27:14.801Z,93168.03
2022-08-08T02:29:58.185Z,93166.25
2022-08-08T02:32:52.348Z,93159.22
2022-08-08T02:35:28.323Z,93160.06
2022-08-08T02:38:29.107Z,93155.00
2022-08-08T02:41:58.676Z,93155.13
2022-08-08T02:45:03.920Z,93166.97
2022-08-08T02:47:51.956Z,93152.75
2022-08-08T02:50:32.554Z,93159.19
2022-08-08T02:53:26.235Z,93165.13
2022-08-08T02:56:14.605Z,93164.25
2022-08-08T02:59:05.784Z,93165.19
2022-08-08T03:02:10.403Z,93167.38
2022-08-08T03:05:03.804Z,93160.72
2022-08-08T03:07:58.031Z,93160.13
2022-08-08T03:11:13.928Z,93173.09
2022-08-08T03:15:58.739Z,93172.34
2022-08-08T03:17:39.139Z,93183.09
2022-08-08T03:20:10.503Z,93190.38
2022-08-08T03:22:56.784Z,93183.00
2022-08-08T03:25:29.352Z,93191.25
2022-08-08T03:28:19.358Z,93187.03
2022-08-08T03:30:49.337Z,93189.06
2022-08-08T03:33:54.795Z,93191.06
2022-08-08T03:36:30.193Z,93191.72
2022-08-08T03:39:14.192Z,93194.97
2022-08-08T03:42:27.762Z,93195.44
2022-08-08T03:44:38.734Z,93203.88
2022-08-08T03:47:20.558Z,93206.44
2022-08-08T03:50:00.438Z,93204.72
2022-08-08T03:52:34.071Z,93203.13
2022-08-08T03:55:20.401Z,93196.06
2022-08-08T03:58:34.216Z,93206.38
2022-08-08T04:01:02.873Z,93204.00
2022-08-08T04:03:58.214Z,93209.66
2022-08-08T04:06:30.518Z,93215.06
2022-08-08T04:09:11.050Z,93216.31
2022-08-08T04:11:58.296Z,93215.19
2022-08-08T04:14:35.000Z,93211.84
2022-08-08T04:17:06.783Z,93212.31
2022-08-08T04:19:44.249Z,93214.69
2022-08-08T04:22:16.705Z,93216.72
2022-08-08T04:24:50.030Z,93217.84
2022-08-08T04:27:19.756Z,93210.84
2022-08-08T04:30:19.011Z,93204.19
2022-08-08T04:32:50.909Z,93200.88
2022-08-08T04:35:22.893Z,93203.91
2022-08-08T04:37:52.750Z,93199.84
2022-08-08T04:40:23.831Z,93210.84
2022-08-08T04:42:56.721Z,93209.44
2022-08-08T04:45:27.757Z,93211.22
2022-08-08T04:48:00.222Z,93205.75
2022-08-08T04:50:37.851Z,93205.34
2022-08-08T04:53:52.081Z,93206.41
2022-08-08T04:55:57.114Z,93198.63
2022-08-08T04:58:26.214Z,93201.78
2022-08-08T05:00:55.028Z,93205.81
2022-08-08T05:04:08.290Z,93196.19
2022-08-08T05:06:25.435Z,93197.78
2022-08-08T05:08:54.714Z,93202.22
2022-08-08T05:11:26.271Z,93194.09
2022-08-08T05:14:00.949Z,93195.69
2022-08-08T05:16:52.755Z,93201.66
2022-08-08T05:20:10.851Z,93200.94
2022-08-08T05:22:13.179Z,93206.44
2022-08-08T05:24:48.608Z,93208.25
2022-08-08T05:27:18.302Z,93222.91
2022-08-08T05:29:50.402Z,93209.41
2022-08-08T05:32:27.118Z,93223.06
2022-08-08T05:35:05.104Z,93220.34
2022-08-08T05:37:52.774Z,93223.38
2022-08-08T05:40:28.477Z,93215.59
2022-08-08T05:43:38.241Z,93200.66
2022-08-08T05:46:03.315Z,93200.81
2022-08-08T05:48:36.073Z,93208.28
2022-08-08T05:51:14.751Z,93211.59
2022-08-08T05:54:24.715Z,93205.41
2022-08-08T05:56:42.381Z,93218.88
2022-08-08T05:59:53.583Z,93214.59
2022-08-08T06:02:43.435Z,93202.69
2022-08-08T06:05:34.046Z,93215.91
2022-08-08T06:08:09.691Z,93211.78
2022-08-08T06:10:51.890Z,93219.56
2022-08-08T06:13:23.210Z,93207.19
2022-08-08T06:15:56.646Z,93213.34
2022-08-08T06:18:29.285Z,93220.66
2022-08-08T06:21:03.731Z,93221.19
2022-08-08T06:23:53.069Z,93215.16
2022-08-08T06:26:43.144Z,93215.94
2022-08-08T06:29:48.618Z,93207.13
2022-08-08T06:32:17.163Z,93207.78
2022-08-08T06:35:11.550Z,93212.06
2022-08-08T06:37:50.941Z,93202.75
2022-08-08T06:40:27.471Z,93199.91
2022-08-08T06:42:58.925Z,93199.28
2022-08-08T06:45:29.964Z,93192.50
2022-08-08T06:48:01.848Z,93194.56
2022-08-08T06:50:33.917Z,93203.59
2022-08-08T06:53:17.214Z,93198.44
2022-08-08T06:56:00.768Z,93191.72
2022-08-08T06:58:33.766Z,93190.63
2022-08-08T07:02:14.242Z,93194.31
2022-08-08T07:04:39.533Z,93187.19
2022-08-08T07:06:59.404Z,93184.03
2022-08-08T07:09:59.740Z,93186.41
2022-08-08T07:12:47.737Z,93188.63
2022-08-08T07:15:32.166Z,93196.69
2022-08-08T07:18:36.064Z,93189.50
2022-08-08T07:21:05.293Z,93188.34
2022-08-08T07:24:03.841Z,93184.88
2022-08-08T07:26:39.570Z,93175.53
2022-08-08T07:29:11.423Z,93178.09
2022-08-08T07:31:42.128Z,93175.47
2022-08-08T07:34:26.716Z,93173.59
2022-08-08T07:37:12.186Z,93178.06
2022-08-08T07:39:57.820Z,93174.59
2022-08-08T07:42:33.007Z,93170.47
2022-08-08T07:45:02.086Z,93156.53
2022-08-08T07:47:38.195Z,93159.81
2022-08-08T07:50:08.480Z,93153.16
2022-08-08T07:52:43.705Z,93150.50
2022-08-08T07:55:28.713Z,93151.88
2022-08-08T07:58:21.668Z,93154.34
2022-08-08T08:00:53.390Z,93148.97
2022-08-08T08:03:48.169Z,93142.84
2022-08-08T08:06:19.309Z,93146.53
2022-08-08T08:08:58.330Z,93139.47
2022-08-08T08:11:34.078Z,93136.59
2022-08-08T08:14:10.885Z,93135.28
2022-08-08T08:16:50.538Z,93124.97
2022-08-08T08:19:21.137Z,93132.53
2022-08-08T08:21:58.296Z,93141.69
2022-08-08T08:24:32.176Z,93152.31
2022-08-08T08:27:02.979Z,93138.50
2022-08-08T08:29:32.905Z,93143.28
2022-08-08T08:32:05.614Z,93126.75
2022-08-08T08:34:35.119Z,93132.50
2022-08-08T08:37:08.467Z,93131.78
2022-08-08T08:40:00.497Z,93133.78
2022-08-08T08:42:35.290Z,93125.47
2022-08-08T08:45:21.348Z,93120.88
2022-08-08T08:47:58.508Z,93117.47
2022-08-08T08:50:34.415Z,93124.81
2022-08-08T08:53:54.991Z,93114.38
2022-08-08T08:56:01.455Z,93112.78
2022-08-08T08:58:50.336Z,93109.13
2022-08-08T09:01:22.603Z,93110.03
2022-08-08T09:03:52.915Z,93106.84
2022-08-08T09:06:40.524Z,93105.75
2022-08-08T09:09:47.368Z,93109.41
2022-08-08T09:12:20.164Z,93104.84
2022-08-08T09:14:53.078Z,93105.94
2022-08-08T09:17:23.669Z,93110.22
2022-08-08T09:21:58.261Z,93107.22
2022-08-08T09:23:00.392Z,93111.25
2022-08-08T09:25:35.625Z,93105.88
2022-08-08T09:28:35.208Z,93109.63
2022-08-08T09:31:13.362Z,93096.31
2022-08-08T09:34:14.711Z,93093.53
2022-08-08T09:36:38.639Z,93090.34
2022-08-08T09:39:15.207Z,93089.06
2022-08-08T09:42:14.661Z,93087.91
2022-08-08T09:44:37.773Z,93092.78
2022-08-08T09:48:02.267Z,93084.53
2022-08-08T09:50:03.330Z,93085.13
2022-08-08T09:52:56.700Z,93085.72
2022-08-08T09:56:05.218Z,93084.84
2022-08-08T09:58:26.373Z,93080.06
2022-08-08T10:01:15.241Z,93084.84
2022-08-08T10:04:04.946Z,93082.25
2022-08-08T10:06:53.003Z,93082.25
2022-08-08T10:09:35.975Z,93082.84
2022-08-08T10:12:38.400Z,93094.09
2022-08-08T10:15:24.197Z,93087.72
2022-08-08T10:18:05.636Z,93086.44
2022-08-08T10:20:57.823Z,93082.75
2022-08-08T10:23:58.586Z,93077.00
2022-08-08T10:26:52.074Z,93067.25
2022-08-08T10:29:57.182Z,93062.94
2022-08-08T10:32:39.302Z,93065.94
2022-08-08T10:36:07.257Z,93066.13
2022-08-08T10:38:09.252Z,93060.75
2022-08-08T10:40:47.147Z,93049.03
2022-08-08T10:43:16.522Z,93035.16
2022-08-08T10:45:54.993Z,93042.44
2022-08-08T10:48:58.952Z,93034.88
2022-08-08T10:51:26.441Z,93024.88
2022-08-08T10:54:02.101Z,93031.94
2022-08-08T10:56:43.306Z,93030.81
2022-08-08T10:59:14.473Z,93041.28
2022-08-08T11:01:49.445Z,93053.66
2022-08-08T11:04:29.442Z,93064.38
2022-08-08T11:07:02.729Z,93064.63
2022-08-08T11:09:32.307Z,93069.50
2022-08-08T11:12:12.792Z,93074.13
2022-08-08T11:14:58.408Z,93086.81
2022-08-08T11:18:00.120Z,93092.66
2022-08-08T11:20:27.743Z,93102.19
2022-08-08T11:23:05.237Z,93109.47
2022-08-08T11:25:56.860Z,93112.72
2022-08-08T11:28:30.621Z,93110.31
2022-08-08T11:31:03.878Z,93101.59
2022-08-08T11:33:52.668Z,93093.00
2022-08-08T11:36:27.834Z,93096.81
2022-08-08T11:38:59.278Z,93084.69
2022-08-08T11:41:33.810Z,93078.78
2022-08-08T11:44:03.655Z,93094.22
2022-08-08T11:46:35.694Z,93099.97
2022-08-08T11:49:10.292Z,93107.00
2022-08-08T11:51:50.433Z,93116.91
2022-08-08T11:54:38.414Z,93113.41
2022-08-08T11:57:30.216Z,93112.53
2022-08-08T12:00:07.790Z,93108.53
2022-08-08T12:02:51.727Z,93119.59
2022-08-08T12:05:22.813Z,93123.38
2022-08-08T12:07:56.070Z,93138.88
2022-08-08T12:10:28.920Z,93146.88
2022-08-08T12:13:06.190Z,93165.28
2022-08-08T12:15:42.762Z,93179.19
2022-08-08T12:18:21.264Z,93194.22
2022-08-08T12:20:53.278Z,93190.44
2022-08-08T12:23:43.752Z,93180.19
2022-08-08T12:26:27.893Z,93173.94
2022-08-08T12:29:21.264Z,93192.84
2022-08-08T12:32:03.013Z,93217.16
2022-08-08T12:34:52.844Z,93215.00
2022-08-08T12:37:41.223Z,93222.44
2022-08-08T12:40:17.805Z,93215.50
2022-08-08T12:42:52.801Z,93210.59
2022-08-08T12:45:58.247Z,93203.00
2022-08-08T12:48:37.125Z,93199.44
2022-08-08T12:51:11.423Z,93213.56
2022-08-08T12:54:00.621Z,93213.75
2022-08-08T12:56:41.942Z,93222.53
2022-08-08T12:59:17.637Z,93228.84
2022-08-08T13:01:58.634Z,93229.28
2022-08-08T13:04:30.579Z,93233.56
2022-08-08T13:07:03.071Z,93229.97
2022-08-08T13:10:04.391Z,93219.66
2022-08-08T13:12:39.577Z,93229.06
2022-08-08T13:15:17.004Z,93222.22
2022-08-08T13:17:54.373Z,93232.13
2022-08-08T13:20:48.405Z,93225.75
2022-08-08T13:23:41.598Z,93221.59
2022-08-08T13:26:14.787Z,93214.44
2022-08-08T13:28:46.010Z,93222.69
2022-08-08T13:31:17.992Z,93229.97
2022-08-08T13:33:50.759Z,93235.53
2022-08-08T13:36:26.313Z,93236.34
2022-08-08T13:38:59.248Z,93237.66
2022-08-08T13:41:37.838Z,93241.06
2022-08-08T13:44:14.189Z,93246.53
2022-08-08T13:46:56.776Z,93253.03
2022-08-08T13:50:33.791Z,93256.28
2022-08-08T13:52:36.008Z,93253.31
2022-08-08T13:55:08.223Z,93259.69
2022-08-08T13:58:06.945Z,93264.47
2022-08-08T14:00:26.423Z,93255.59
2022-08-08T14:03:20.103Z,93261.22
2022-08-08T14:05:57.596Z,93269.56
2022-08-08T14:08:34.878Z,93272.97
2022-08-08T14:11:03.825Z,93268.16
2022-08-08T14:13:34.423Z,93271.34
2022-08-08T14:16:16.083Z,93267.44
2022-08-08T14:18:57.452Z,93268.19
2022-08-08T14:21:51.859Z,93263.03
2022-08-08T14:24:35.245Z,93278.91
2022-08-08T14:27:07.349Z,93290.66
2022-08-08T14:29:40.149Z,93294.59
2022-08-08T14:32:16.043Z,93293.75
2022-08-08T14:34:58.397Z,93290.13
2022-08-08T14:37:28.081Z,93300.38
2022-08-08T14:40:19.565Z,93301.97
2022-08-08T14:42:57.024Z,93304.53
2022-08-08T14:46:01.269Z,93301.97
2022-08-08T14:48:34.038Z,93308.25
2022-08-08T14:51:17.618Z,93308.53
2022-08-08T14:53:56.204Z,93314.31
2022-08-08T14:56:29.386Z,93319.94
2022-08-08T14:58:57.898Z,93322.91
2022-08-08T15:01:40.780Z,93330.00
2022-08-08T15:04:12.073Z,93334.28
2022-08-08T15:06:42.595Z,93334.28
2022-08-08T15:09:13.068Z,93332.59
2022-08-08T15:11:46.271Z,93332.00
2022-08-08T15:14:25.089Z,93337.25
2022-08-08T15:16:57.076Z,93333.56
2022-08-08T15:19:27.803Z,93340.88
2022-08-08T15:21:57.801Z,93349.44
2022-08-08T15:24:31.398Z,93345.78
2022-08-08T15:27:12.209Z,93358.31
2022-08-08T15:29:50.464Z,93362.72
2022-08-08T15:32:23.110Z,93355.75
2022-08-08T15:34:53.115Z,93364.44
2022-08-08T15:37:21.731Z,93363.50
2022-08-08T15:39:51.675Z,93353.38
2022-08-08T15:42:32.155Z,93362.97
2022-08-08T15:45:03.205Z,93362.63
2022-08-08T15:47:32.325Z,93363.09
2022-08-08T15:50:01.691Z,93364.47
2022-08-08T15:52:31.282Z,93358.97
2022-08-08T15:55:01.839Z,93367.81
2022-08-08T15:57:35.291Z,93373.69
2022-08-08T16:00:27.100Z,93373.91
2022-08-08T16:02:57.804Z,93371.66
2022-08-08T16:05:35.782Z,93380.75
2022-08-08T16:08:20.017Z,93381.25
2022-08-08T16:13:10.582Z,93381.09
2022-08-08T16:13:46.201Z,93376.25
2022-08-08T16:16:17.961Z,93392.25
2022-08-08T16:18:56.287Z,93393.31
2022-08-08T16:21:28.981Z,93386.31
2022-08-08T16:23:58.796Z,93387.13
2022-08-08T16:26:34.331Z,93388.69
2022-08-08T16:29:10.519Z,93391.22
2022-08-08T16:31:48.891Z,93397.97
2022-08-08T16:34:21.208Z,93397.06
2022-08-08T16:36:53.680Z,93398.50
2022-08-08T16:39:59.462Z,93407.13
2022-08-08T16:42:18.147Z,93411.72
2022-08-08T16:45:00.179Z,93412.28
2022-08-08T16:47:41.655Z,93420.06
2022-08-08T16:50:15.004Z,93429.38
2022-08-08T16:55:01.632Z,93426.84
2022-08-08T16:55:53.884Z,93441.03
2022-08-08T16:58:26.849Z,93434.84
2022-08-08T17:00:59.239Z,93444.06
2022-08-08T17:04:00.159Z,93450.41
2022-08-08T17:06:36.190Z,93460.59
2022-08-08T17:09:06.955Z,93455.84
2022-08-08T17:11:39.457Z,93468.38
2022-08-08T17:14:27.178Z,93477.75
2022-08-08T17:16:58.131Z,93478.47
2022-08-08T17:19:29.788Z,93482.38
2022-08-08T17:22:01.072Z,93472.53
2022-08-08T17:24:31.481Z,93467.09
2022-08-08T17:27:01.584Z,93479.34
2022-08-08T17:29:33.531Z,93488.59
2022-08-08T17:32:03.310Z,93494.31
2022-08-08T17:34:36.255Z,93487.63
2022-08-08T17:37:21.124Z,93507.50
2022-08-08T17:40:05.766Z,93496.88
2022-08-08T17:42:39.887Z,93491.28
2022-08-08T17:45:14.214Z,93500.66
2022-08-08T17:47:51.663Z,93504.81
2022-08-08T17:50:23.143Z,93491.06
2022-08-08T17:52:52.153Z,93492.19
2022-08-08T17:56:06.835Z,93495.72
2022-08-08T17:58:13.057Z,93491.72
2022-08-08T18:00:42.060Z,93496.09
2022-08-08T18:03:16.100Z,93501.00
2022-08-08T18:05:51.406Z,93498.09
2022-08-08T18:08:25.169Z,93491.13
2022-08-08T18:11:15.243Z,93497.69
2022-08-08T18:13:48.273Z,93502.41
2022-08-08T18:16:22.932Z,93511.31
2022-08-08T18:18:57.229Z,93501.78
2022-08-08T18:21:59.173Z,93500.50
2022-08-08T18:24:21.216Z,93507.34
2022-08-08T18:26:54.708Z,93504.78
2022-08-08T18:29:30.126Z,93502.09
2022-08-08T18:32:07.343Z,93510.03
2022-08-08T18:34:38.021Z,93507.56
2022-08-08T18:37:09.271Z,93503.66
2022-08-08T18:39:42.439Z,93501.38
2022-08-08T18:42:15.783Z,93511.16
2022-08-08T18:44:53.062Z,93506.03
2022-08-08T18:47:28.131Z,93510.13
2022-08-08T18:50:03.670Z,93509.00
2022-08-08T18:52:37.054Z,93516.56
2022-08-08T18:55:09.846Z,93519.53
2022-08-08T18:57:44.787Z,93528.66
2022-08-08T19:00:20.655Z,93532.47
2022-08-08T19:02:55.488Z,93535.31
2022-08-08T19:05:34.907Z,93530.56
2022-08-08T19:08:24.403Z,93525.03
2022-08-08T19:10:58.569Z,93523.72
2022-08-08T19:13:53.756Z,93535.78
2022-08-08T19:16:19.718Z,93538.97
2022-08-08T19:18:57.429Z,93546.00
2022-08-08T19:21:33.037Z,93533.72
2022-08-08T19:24:05.629Z,93557.94
2022-08-08T19:26:37.381Z,93555.41
2022-08-08T19:29:07.948Z,93551.88
2022-08-08T19:31:37.109Z,93566.84
2022-08-08T19:34:36.306Z,93556.31
2022-08-08T19:36:58.266Z,93561.22
2022-08-08T19:39:30.897Z,93556.66
2022-08-08T19:42:06.727Z,93572.72
2022-08-08T19:44:42.783Z,93574.47
2022-08-08T19:47:12.588Z,93572.09
2022-08-08T19:49:43.411Z,93561.78
2022-08-08T19:52:34.449Z,93583.06
2022-08-08T19:55:14.544Z,93573.56
2022-08-08T19:57:47.300Z,93573.56
2022-08-08T20:00:29.946Z,93584.31
2022-08-08T20:02:59.953Z,93578.00
2022-08-08T20:06:16.201Z,93571.81
2022-08-08T20:08:31.350Z,93580.84
2022-08-08T20:11:01.932Z,93578.00
2022-08-08T20:14:32.460Z,93588.19
2022-08-08T20:16:21.156Z,93590.84
2022-08-08T20:18:52.860Z,93586.25
2022-08-08T20:21:25.521Z,93595.97
2022-08-08T20:23:57.968Z,93591.97
2022-08-08T20:26:27.485Z,93597.50
2022-08-08T20:29:00.445Z,93599.88
2022-08-08T20:32:07.243Z,93601.69
2022-08-08T20:34:30.411Z,93600.69
2022-08-08T20:39:39.150Z,93609.16
2022-08-08T20:42:28.668Z,93605.00
2022-08-08T20:44:59.152Z,93599.94
2022-08-08T20:47:36.611Z,93606.94
2022-08-08T20:50:09.977Z,93611.88
2022-08-08T20:52:39.997Z,93618.41
2022-08-08T20:55:16.436Z,93621.88
2022-08-08T20:57:51.609Z,93620.59
2022-08-08T21:00:21.389Z,93618.34
2022-08-08T21:02:52.730Z,93616.63
2022-08-08T21:05:23.044Z,93622.81
2022-08-08T21:08:33.885Z,93621.88
2022-08-08T21:10:42.709Z,93620.63
2022-08-08T21:13:11.800Z,93619.81
2022-08-08T21:16:05.811Z,93618.69
2022-08-08T21:18:29.606Z,93625.84
2022-08-08T21:21:00.927Z,93619.97
2022-08-08T21:23:59.028Z,93637.63
2022-08-08T21:26:27.268Z,93639.63
2022-08-08T21:29:02.211Z,93632.50
2022-08-08T21:31:58.968Z,93625.22
2022-08-08T21:34:19.730Z,93633.97
2022-08-08T21:36:49.060Z,93622.84
2022-08-08T21:39:19.525Z,93639.50
2022-08-08T21:41:53.803Z,93634.53
2022-08-08T21:44:27.603Z,93628.38
2022-08-08T21:48:04.027Z,93631.72
2022-08-08T21:49:44.938Z,93636.31
2022-08-08T21:54:33.972Z,93621.53
2022-08-08T21:55:24.231Z,93633.75
2022-08-08T21:58:05.157Z,93629.97
2022-08-08T22:00:40.748Z,93630.41
2022-08-08T22:03:10.910Z,93647.88
2022-08-08T22:05:44.077Z,93642.25
2022-08-08T22:08:12.875Z,93633.16
2022-08-08T22:10:43.513Z,93630.47
2022-08-08T22:13:21.445Z,93642.53
2022-08-08T22:16:00.367Z,93643.84
2022-08-08T22:18:34.069Z,93641.41
2022-08-08T22:21:14.044Z,93650.78
2022-08-08T22:23:51.517Z,93647.00
2022-08-08T22:26:30.180Z,93647.50
2022-08-08T22:29:14.244Z,93646.56
2022-08-08T22:31:59.500Z,93654.81
2022-08-08T22:34:39.203Z,93656.66
2022-08-08T22:37:27.779Z,93645.19
2022-08-08T22:40:01.416Z,93642.53
2022-08-08T22:42:34.341Z,93645.31
2022-08-08T22:45:12.184Z,93646.03
2022-08-08T22:47:49.042Z,93652.06
2022-08-08T22:50:25.633Z,93648.56
2022-08-08T22:54:29.266Z,93638.75
2022-08-08T22:55:58.416Z,93651.75
2022-08-08T22:58:35.159Z,93642.25
2022-08-08T23:02:01.089Z,93640.75
2022-08-08T23:03:56.008Z,93652.22
2022-08-08T23:06:27.981Z,93646.16
2022-08-08T23:09:00.067Z,93659.50
2022-08-08T23:12:17.806Z,93653.47
2022-08-08T23:14:21.003Z,93649.53
2022-08-08T23:16:57.564Z,93653.47
2022-08-08T23:19:32.259Z,93659.63
2022-08-08T23:22:04.111Z,93661.22
2022-08-08T23:24:41.582Z,93651.69
2022-08-08T23:27:17.219Z,93652.72
2022-08-08T23:30:01.575Z,93661.38
2022-08-08T23:32:30.585Z,93652.19
2022-08-08T23:35:01.124Z,93654.97
2022-08-08T23:38:00.747Z,93652.31
2022-08-08T23:40:25.502Z,93650.47
2022-08-08T23:42:54.020Z,93654.91
2022-08-08T23:49:04.179Z,93659.50
2022-08-08T23:49:07.544Z,93659.63
2022-08-08T23:50:59.852Z,93650.84
2022-08-08T23:54:06.320Z,93648.25
2022-08-08T23:56:23.859Z,93654.59
2022-08-08T23:59:01.043Z,93669.97
